createdAt,value
2022-11-17T00:00:35.170Z,92.70
2022-11-17T00:03:05.349Z,93.10
2022-11-17T00:05:35.376Z,92.90
2022-11-17T00:08:03.281Z,93.41
2022-11-17T00:10:31.238Z,93.68
2022-11-17T00:13:17.740Z,93.47
2022-11-17T00:15:45.930Z,93.76
2022-11-17T00:18:32.520Z,94.53
2022-11-17T00:21:23.675Z,94.59
2022-11-17T00:23:51.812Z,94.27
2022-11-17T00:26:21.791Z,94.84
2022-11-17T00:28:54.725Z,94.24
2022-11-17T00:31:42.312Z,93.90
2022-11-17T00:34:12.834Z,94.41
2022-11-17T00:36:45.131Z,94.44
2022-11-17T00:39:13.619Z,94.13
2022-11-17T00:41:41.596Z,94.15
2022-11-17T00:44:10.057Z,93.16
2022-11-17T00:46:38.643Z,92.61
2022-11-17T00:49:07.517Z,94.97
2022-11-17T00:51:35.911Z,93.11
2022-11-17T00:54:05.311Z,92.25
2022-11-17T00:56:34.099Z,92.59
2022-11-17T00:59:02.202Z,92.02
2022-11-17T01:01:30.474Z,92.08
2022-11-17T01:04:04.965Z,92.34
2022-11-17T01:06:34.272Z,91.91
2022-11-17T01:09:03.560Z,92.48
2022-11-17T01:11:31.732Z,92.76
2022-11-17T01:14:00.726Z,93.11
2022-11-17T01:16:29.672Z,93.39
2022-11-17T01:18:59.739Z,93.18
2022-11-17T01:21:28.519Z,92.49
2022-11-17T01:23:57.517Z,92.54
2022-11-17T01:26:26.542Z,92.14
2022-11-17T01:28:54.826Z,91.56
2022-11-17T01:31:24.181Z,91.40
2022-11-17T01:33:52.527Z,90.94
2022-11-17T01:36:22.194Z,91.38
2022-11-17T01:38:50.241Z,91.31
2022-11-17T01:41:21.274Z,91.18
2022-11-17T01:43:49.421Z,91.25
2022-11-17T01:46:38.002Z,91.15
2022-11-17T01:49:18.363Z,90.77
2022-11-17T01:51:48.759Z,90.43
2022-11-17T01:54:18.257Z,90.17
2022-11-17T01:56:48.376Z,90.05
2022-11-17T01:59:20.301Z,90.04
2022-11-17T02:02:06.502Z,90.57
2022-11-17T02:04:44.404Z,90.77
2022-11-17T02:07:33.087Z,90.89
2022-11-17T02:10:01.904Z,91.09
2022-11-17T02:12:31.920Z,91.02
2022-11-17T02:15:00.499Z,90.95
2022-11-17T02:17:37.222Z,91.04
2022-11-17T02:20:05.378Z,90.78
2022-11-17T02:22:39.253Z,90.40
2022-11-17T02:25:16.394Z,90.62
2022-11-17T02:27:44.390Z,90.16
2022-11-17T02:30:14.217Z,90.30
2022-11-17T02:32:57.205Z,90.28
2022-11-17T02:35:25.203Z,90.05
2022-11-17T02:38:05.421Z,89.72
2022-11-17T02:41:03.041Z,89.45
2022-11-17T02:44:07.017Z,89.34
2022-11-17T02:46:41.269Z,90.33
2022-11-17T02:49:29.864Z,90.84
2022-11-17T02:51:58.895Z,90.19
2022-11-17T02:54:28.983Z,89.35
2022-11-17T02:56:56.879Z,89.01
2022-11-17T02:59:33.982Z,89.17
2022-11-17T03:02:01.867Z,89.34
2022-11-17T03:04:34.722Z,89.23
2022-11-17T03:07:22.057Z,88.78
2022-11-17T03:10:03.540Z,88.65
2022-11-17T03:12:39.190Z,88.43
2022-11-17T03:15:17.826Z,88.77
2022-11-17T03:18:11.247Z,89.03
2022-11-17T03:20:39.317Z,89.17
2022-11-17T03:23:10.459Z,89.33
2022-11-17T03:25:43.037Z,90.75
2022-11-17T03:28:12.253Z,90.84
2022-11-17T03:30:42.077Z,89.62
2022-11-17T03:33:15.357Z,89.87
2022-11-17T03:35:50.641Z,89.71
2022-11-17T03:38:21.004Z,89.25
2022-11-17T03:40:50.715Z,89.03
2022-11-17T03:43:20.623Z,89.09
2022-11-17T03:45:50.385Z,89.61
2022-11-17T03:48:27.548Z,89.58
2022-11-17T03:50:59.290Z,90.09
2022-11-17T03:53:27.169Z,89.94
2022-11-17T03:56:13.549Z,90.02
2022-11-17T03:58:50.059Z,91.07
2022-11-17T04:01:20.106Z,90.43
2022-11-17T04:03:48.401Z,90.70
2022-11-17T04:06:16.675Z,91.48
2022-11-17T04:08:44.753Z,91.65
2022-11-17T04:11:31.292Z,92.73
2022-11-17T04:14:17.941Z,93.91
2022-11-17T04:16:46.131Z,94.88
2022-11-17T04:19:14.232Z,95.03
2022-11-17T04:21:42.175Z,94.54
2022-11-17T04:24:10.075Z,95.33
2022-11-17T04:26:56.946Z,95.21
2022-11-17T04:29:25.038Z,95.45
2022-11-17T04:31:52.880Z,96.33
2022-11-17T04:34:20.916Z,95.69
2022-11-17T04:36:48.795Z,96.39
2022-11-17T04:39:16.965Z,97.43
2022-11-17T04:41:54.229Z,96.33
2022-11-17T04:44:26.956Z,94.45
2022-11-17T04:46:55.945Z,94.62
2022-11-17T04:49:24.957Z,94.56
2022-11-17T04:51:53.736Z,94.46
2022-11-17T04:54:24.593Z,94.32
2022-11-17T04:56:53.228Z,94.69
2022-11-17T04:59:21.829Z,94.14
2022-11-17T05:01:50.288Z,94.09
2022-11-17T05:04:39.683Z,93.71
2022-11-17T05:07:08.485Z,92.69
2022-11-17T05:09:36.843Z,92.85
2022-11-17T05:12:23.525Z,92.78
2022-11-17T05:14:52.621Z,92.13
2022-11-17T05:17:20.819Z,91.36
2022-11-17T05:19:49.305Z,90.61
2022-11-17T05:22:37.855Z,89.96
2022-11-17T05:25:05.903Z,89.01
2022-11-17T05:27:34.605Z,88.55
2022-11-17T05:30:03.597Z,88.85
2022-11-17T05:32:31.545Z,88.93
2022-11-17T05:34:59.749Z,87.88
2022-11-17T05:37:28.012Z,87.91
2022-11-17T05:39:56.051Z,88.57
2022-11-17T05:42:24.331Z,88.45
2022-11-17T05:44:52.375Z,88.15
2022-11-17T05:47:20.284Z,88.59
2022-11-17T05:49:48.267Z,88.20
2022-11-17T05:52:16.249Z,87.84
2022-11-17T05:54:44.309Z,87.96
2022-11-17T05:57:14.795Z,87.61
2022-11-17T05:59:45.965Z,87.29
2022-11-17T06:02:16.615Z,86.15
2022-11-17T06:04:46.518Z,86.34
2022-11-17T06:07:15.868Z,86.07
2022-11-17T06:09:43.828Z,85.87
2022-11-17T06:12:15.606Z,85.76
2022-11-17T06:14:43.819Z,86.07
2022-11-17T06:17:23.363Z,85.80
2022-11-17T06:19:54.914Z,85.06
2022-11-17T06:22:24.311Z,83.92
2022-11-17T06:24:52.962Z,82.87
2022-11-17T06:27:21.170Z,81.36
2022-11-17T06:29:49.924Z,81.60
2022-11-17T06:32:19.249Z,82.26
2022-11-17T06:34:54.917Z,81.80
2022-11-17T06:37:24.665Z,81.29
2022-11-17T06:39:52.806Z,81.45
2022-11-17T06:42:40.621Z,81.59
2022-11-17T06:45:08.839Z,81.33
2022-11-17T06:47:36.619Z,82.02
2022-11-17T06:50:05.072Z,82.50
2022-11-17T06:52:33.221Z,82.27
2022-11-17T06:55:01.285Z,82.33
2022-11-17T06:57:30.073Z,81.83
2022-11-17T06:59:58.147Z,81.38
2022-11-17T07:02:26.117Z,81.20
2022-11-17T07:04:54.246Z,81.25
2022-11-17T07:07:22.388Z,80.63
2022-11-17T07:09:50.797Z,80.23
2022-11-17T07:12:18.912Z,80.38
2022-11-17T07:14:46.978Z,80.27
2022-11-17T07:17:15.049Z,80.15
2022-11-17T07:19:43.220Z,80.15
2022-11-17T07:22:11.294Z,80.40
2022-11-17T07:24:39.567Z,79.72
2022-11-17T07:27:08.268Z,79.73
2022-11-17T07:29:36.529Z,79.20
2022-11-17T07:32:05.031Z,79.32
2022-11-17T07:34:33.285Z,78.81
2022-11-17T07:37:01.560Z,78.24
2022-11-17T07:39:29.532Z,78.13
2022-11-17T07:41:57.494Z,77.98
2022-11-17T07:44:26.798Z,78.61
2022-11-17T07:46:55.083Z,78.56
2022-11-17T07:49:23.656Z,79.02
2022-11-17T07:51:52.031Z,79.30
2022-11-17T07:54:20.614Z,79.04
2022-11-17T07:56:48.591Z,78.90
2022-11-17T07:59:21.197Z,79.78
2022-11-17T08:01:49.637Z,79.34
2022-11-17T08:04:18.013Z,79.62
2022-11-17T08:06:46.191Z,80.46
2022-11-17T08:09:16.116Z,80.10
2022-11-17T08:11:45.361Z,79.47
2022-11-17T08:14:13.580Z,79.14
2022-11-17T08:16:41.761Z,78.81
2022-11-17T08:19:14.631Z,79.29
2022-11-17T08:21:42.702Z,80.18
2022-11-17T08:24:12.204Z,79.84
2022-11-17T08:26:40.488Z,80.10
2022-11-17T08:29:08.854Z,80.03
2022-11-17T08:31:37.235Z,80.42
2022-11-17T08:34:05.612Z,80.64
2022-11-17T08:36:33.590Z,79.75
2022-11-17T08:39:01.548Z,80.04
2022-11-17T08:41:29.930Z,79.75
2022-11-17T08:43:58.409Z,79.95
2022-11-17T08:46:26.891Z,79.53
2022-11-17T08:48:57.097Z,78.56
2022-11-17T08:51:25.796Z,77.84
2022-11-17T08:53:53.762Z,76.66
2022-11-17T08:56:22.038Z,76.82
2022-11-17T08:58:50.105Z,75.35
2022-11-17T09:01:19.085Z,74.25
2022-11-17T09:03:48.085Z,72.75
2022-11-17T09:06:16.982Z,72.23
2022-11-17T09:08:47.457Z,71.36
2022-11-17T09:11:16.907Z,71.14
2022-11-17T09:13:47.166Z,71.59
2022-11-17T09:16:16.333Z,71.85
2022-11-17T09:18:44.808Z,71.58
2022-11-17T09:21:14.004Z,71.60
2022-11-17T09:23:42.591Z,72.10
2022-11-17T09:26:12.500Z,71.79
2022-11-17T09:28:41.062Z,71.59
2022-11-17T09:31:16.670Z,71.91
2022-11-17T09:33:44.931Z,72.02
2022-11-17T09:36:13.917Z,72.77
2022-11-17T09:38:42.135Z,72.38
2022-11-17T09:41:22.322Z,72.13
2022-11-17T09:43:59.690Z,73.02
2022-11-17T09:46:33.624Z,74.46
2022-11-17T09:49:11.112Z,74.91
2022-11-17T09:51:42.662Z,75.10
2022-11-17T09:54:18.906Z,75.82
2022-11-17T09:56:48.328Z,75.63
2022-11-17T09:59:19.474Z,75.76
2022-11-17T10:01:47.412Z,75.99
2022-11-17T10:04:17.012Z,75.31
2022-11-17T10:06:46.313Z,75.55
2022-11-17T10:09:26.442Z,75.12
2022-11-17T10:11:59.789Z,74.45
2022-11-17T10:14:28.425Z,74.49
2022-11-17T10:16:58.088Z,74.29
2022-11-17T10:19:27.987Z,74.32
2022-11-17T10:22:03.203Z,72.96
2022-11-17T10:24:42.782Z,71.69
2022-11-17T10:27:22.023Z,71.71
2022-11-17T10:30:00.629Z,71.80
2022-11-17T10:32:30.305Z,71.94
2022-11-17T10:35:15.511Z,71.80
2022-11-17T10:38:03.730Z,72.30
2022-11-17T10:40:33.150Z,73.08
2022-11-17T10:43:04.104Z,72.93
2022-11-17T10:45:32.839Z,72.65
2022-11-17T10:48:24.625Z,72.68
2022-11-17T10:50:58.845Z,72.13
2022-11-17T10:53:32.935Z,71.98
2022-11-17T10:56:25.089Z,72.53
2022-11-17T10:58:56.896Z,72.76
2022-11-17T11:01:31.879Z,73.14
2022-11-17T11:04:00.128Z,74.40
2022-11-17T11:06:29.918Z,74.97
2022-11-17T11:09:14.398Z,75.06
2022-11-17T11:11:49.653Z,75.56
2022-11-17T11:14:39.617Z,76.84
2022-11-17T11:17:15.376Z,77.28
2022-11-17T11:19:46.202Z,77.70
2022-11-17T11:22:23.187Z,78.49
2022-11-17T11:25:10.142Z,79.32
2022-11-17T11:27:48.308Z,79.66
2022-11-17T11:30:18.107Z,80.05
2022-11-17T11:33:01.846Z,80.20
2022-11-17T11:35:32.894Z,80.77
2022-11-17T11:38:19.905Z,80.72
2022-11-17T11:41:02.521Z,79.76
2022-11-17T11:43:40.216Z,80.06
2022-11-17T11:46:14.328Z,80.17
2022-11-17T11:48:42.298Z,81.56
2022-11-17T11:51:10.368Z,82.22
2022-11-17T11:53:44.463Z,82.39
2022-11-17T11:56:15.732Z,82.12
2022-11-17T11:58:51.788Z,83.10
2022-11-17T12:01:21.591Z,83.22
2022-11-17T12:03:56.868Z,83.30
2022-11-17T12:06:41.489Z,83.62
2022-11-17T12:09:25.122Z,83.56
2022-11-17T12:12:02.850Z,83.23
2022-11-17T12:14:32.258Z,82.98
2022-11-17T12:17:16.062Z,83.17
2022-11-17T12:19:44.238Z,83.31
2022-11-17T12:22:18.936Z,83.57
2022-11-17T12:24:47.134Z,82.80
2022-11-17T12:27:32.100Z,82.33
2022-11-17T12:30:01.087Z,81.82
2022-11-17T12:32:44.366Z,81.30
2022-11-17T12:35:29.156Z,81.36
2022-11-17T12:38:09.365Z,81.09
2022-11-17T12:40:41.615Z,81.43
2022-11-17T12:43:15.471Z,81.14
2022-11-17T12:45:58.743Z,81.70
2022-11-17T12:48:34.779Z,81.29
2022-11-17T12:51:06.558Z,80.64
2022-11-17T12:53:37.604Z,80.83
2022-11-17T12:56:18.522Z,79.96
2022-11-17T12:58:52.912Z,78.68
2022-11-17T13:01:39.876Z,78.67
2022-11-17T13:04:08.580Z,79.38
2022-11-17T13:06:37.019Z,78.53
2022-11-17T13:09:07.206Z,77.76
2022-11-17T13:11:35.453Z,77.63
2022-11-17T13:14:11.426Z,77.48
2022-11-17T13:16:48.621Z,76.62
2022-11-17T13:19:35.102Z,76.56
2022-11-17T13:22:06.013Z,75.94
2022-11-17T13:24:35.723Z,76.49
2022-11-17T13:27:07.789Z,75.30
2022-11-17T13:29:36.144Z,75.65
2022-11-17T13:32:21.035Z,74.52
2022-11-17T13:34:53.837Z,75.60
2022-11-17T13:37:26.407Z,75.16
2022-11-17T13:39:55.302Z,74.81
2022-11-17T13:42:25.040Z,75.38
2022-11-17T13:44:57.588Z,74.16
2022-11-17T13:47:41.319Z,73.42
2022-11-17T13:50:21.584Z,74.13
2022-11-17T13:53:00.922Z,75.71
2022-11-17T13:55:29.602Z,75.86
2022-11-17T13:58:00.201Z,75.45
2022-11-17T14:00:29.527Z,75.34
2022-11-17T14:02:59.030Z,74.86
2022-11-17T14:05:29.047Z,74.43
2022-11-17T14:07:58.656Z,74.26
2022-11-17T14:10:28.235Z,74.83
2022-11-17T14:13:00.235Z,74.27
2022-11-17T14:15:34.712Z,74.06
2022-11-17T14:18:05.681Z,73.43
2022-11-17T14:20:34.682Z,72.97
2022-11-17T14:23:09.098Z,73.41
2022-11-17T14:25:39.828Z,72.74
2022-11-17T14:28:14.327Z,72.90
2022-11-17T14:30:42.314Z,73.01
2022-11-17T14:33:13.537Z,73.49
2022-11-17T14:35:43.064Z,72.99
2022-11-17T14:38:14.513Z,72.90
2022-11-17T14:40:42.449Z,73.00
2022-11-17T14:43:10.429Z,73.17
2022-11-17T14:45:38.919Z,73.37
2022-11-17T14:48:07.308Z,73.74
2022-11-17T14:50:35.199Z,73.82
2022-11-17T14:53:03.530Z,74.41
2022-11-17T14:55:31.527Z,74.54
2022-11-17T14:57:59.511Z,74.41
2022-11-17T15:00:27.870Z,74.32
2022-11-17T15:02:55.942Z,75.02
2022-11-17T15:05:24.144Z,75.09
2022-11-17T15:07:52.383Z,75.13
2022-11-17T15:10:20.664Z,74.51
2022-11-17T15:12:48.630Z,74.39
2022-11-17T15:15:18.172Z,74.78
2022-11-17T15:17:46.307Z,74.58
2022-11-17T15:20:14.312Z,74.23
2022-11-17T15:22:42.550Z,75.09
2022-11-17T15:25:10.562Z,75.46
2022-11-17T15:27:38.794Z,75.29
2022-11-17T15:30:07.100Z,76.23
2022-11-17T15:32:36.366Z,76.89
2022-11-17T15:35:04.436Z,77.78
2022-11-17T15:37:32.405Z,78.14
2022-11-17T15:40:00.643Z,78.90
2022-11-17T15:42:28.764Z,79.66
2022-11-17T15:44:56.717Z,80.01
2022-11-17T15:47:24.891Z,80.26
2022-11-17T15:49:58.673Z,80.24
2022-11-17T15:52:48.867Z,80.40
2022-11-17T15:55:14.804Z,80.09
2022-11-17T15:57:43.489Z,79.98
2022-11-17T16:00:12.177Z,79.87
2022-11-17T16:02:43.727Z,79.72
2022-11-17T16:05:11.703Z,80.50
2022-11-17T16:07:40.180Z,80.87
2022-11-17T16:10:08.859Z,79.83
2022-11-17T16:12:36.838Z,79.78
2022-11-17T16:15:05.313Z,79.15
2022-11-17T16:17:33.276Z,78.19
2022-11-17T16:20:01.454Z,77.46
2022-11-17T16:22:29.975Z,76.60
2022-11-17T16:24:58.409Z,76.53
2022-11-17T16:27:26.383Z,77.11
2022-11-17T16:29:54.350Z,76.45
2022-11-17T16:32:22.396Z,75.87
2022-11-17T16:34:50.485Z,75.89
2022-11-17T16:37:18.559Z,76.13
2022-11-17T16:39:46.524Z,75.76
2022-11-17T16:42:14.902Z,75.47
2022-11-17T16:44:43.049Z,75.88
2022-11-17T16:47:11.259Z,75.95
2022-11-17T16:49:39.318Z,75.95
2022-11-17T16:52:07.601Z,76.57
2022-11-17T16:54:35.569Z,76.97
2022-11-17T16:57:03.549Z,77.02
2022-11-17T16:59:31.470Z,77.35
2022-11-17T17:01:59.420Z,77.36
2022-11-17T17:04:30.116Z,77.67
2022-11-17T17:06:58.747Z,77.54
2022-11-17T17:09:28.203Z,77.65
2022-11-17T17:11:56.670Z,77.74
2022-11-17T17:14:24.737Z,77.14
2022-11-17T17:16:52.907Z,77.34
2022-11-17T17:19:20.781Z,77.57
2022-11-17T17:21:48.946Z,77.42
2022-11-17T17:24:17.222Z,77.09
2022-11-17T17:26:45.394Z,76.23
2022-11-17T17:29:14.324Z,75.62
2022-11-17T17:31:42.768Z,75.69
2022-11-17T17:34:12.372Z,75.17
2022-11-17T17:36:40.956Z,74.26
2022-11-17T17:39:14.307Z,74.12
2022-11-17T17:41:44.418Z,74.72
2022-11-17T17:44:16.843Z,74.99
2022-11-17T17:46:45.831Z,74.70
2022-11-17T17:49:14.761Z,74.39
2022-11-17T17:51:44.608Z,74.42
2022-11-17T17:54:17.313Z,73.74
2022-11-17T17:56:45.900Z,73.41
2022-11-17T17:59:14.365Z,73.16
2022-11-17T18:01:42.561Z,72.73
2022-11-17T18:04:15.520Z,73.10
2022-11-17T18:06:47.585Z,72.60
2022-11-17T18:09:19.237Z,72.01
2022-11-17T18:11:50.560Z,71.80
2022-11-17T18:14:29.220Z,72.30
2022-11-17T18:16:57.596Z,70.91
2022-11-17T18:19:31.400Z,70.74
2022-11-17T18:22:01.413Z,70.86
2022-11-17T18:24:29.580Z,70.67
2022-11-17T18:26:57.559Z,70.13
2022-11-17T18:29:25.604Z,70.71
2022-11-17T18:31:53.907Z,70.45
2022-11-17T18:34:23.008Z,69.09
2022-11-17T18:36:52.081Z,69.56
2022-11-17T18:39:21.495Z,70.47
2022-11-17T18:41:49.872Z,71.21
2022-11-17T18:44:20.630Z,71.77
2022-11-17T18:46:48.985Z,72.50
2022-11-17T18:49:17.397Z,72.10
2022-11-17T18:51:46.558Z,71.78
2022-11-17T18:54:14.631Z,71.70
2022-11-17T18:56:44.447Z,71.78
2022-11-17T18:59:12.753Z,72.80
2022-11-17T19:01:41.989Z,72.16
2022-11-17T19:04:11.824Z,71.71
2022-11-17T19:06:39.793Z,71.78
2022-11-17T19:09:08.483Z,71.95
2022-11-17T19:11:37.250Z,71.76
2022-11-17T19:14:08.133Z,71.26
2022-11-17T19:16:44.441Z,70.31
2022-11-17T19:19:14.065Z,70.24
2022-11-17T19:21:42.888Z,70.19
2022-11-17T19:24:12.384Z,71.35
2022-11-17T19:26:40.740Z,72.67
2022-11-17T19:29:16.136Z,73.17
2022-11-17T19:31:45.895Z,73.51
2022-11-17T19:34:14.652Z,72.90
2022-11-17T19:36:42.648Z,73.28
2022-11-17T19:39:11.711Z,73.47
2022-11-17T19:41:40.123Z,73.91
2022-11-17T19:44:09.017Z,74.46
2022-11-17T19:46:37.491Z,74.99
2022-11-17T19:49:06.342Z,74.88
2022-11-17T19:51:36.823Z,74.10
2022-11-17T19:54:06.525Z,75.79
2022-11-17T19:56:35.442Z,77.23
2022-11-17T19:59:03.862Z,78.00
2022-11-17T20:01:32.289Z,76.46
2022-11-17T20:04:01.255Z,76.63
2022-11-17T20:06:32.003Z,75.88
2022-11-17T20:09:00.075Z,75.24
2022-11-17T20:11:28.849Z,75.31
2022-11-17T20:13:56.995Z,76.04
2022-11-17T20:16:26.340Z,76.91
2022-11-17T20:18:55.479Z,77.49
2022-11-17T20:21:23.954Z,76.95
2022-11-17T20:23:52.572Z,75.47
2022-11-17T20:26:22.592Z,75.19
2022-11-17T20:28:50.865Z,75.43
2022-11-17T20:31:20.471Z,75.88
2022-11-17T20:33:48.747Z,75.84
2022-11-17T20:36:18.439Z,75.39
2022-11-17T20:38:53.797Z,75.21
2022-11-17T20:41:23.482Z,74.45
2022-11-17T20:43:52.701Z,73.61
2022-11-17T20:46:21.366Z,73.50
2022-11-17T20:48:49.560Z,73.40
2022-11-17T20:51:18.862Z,73.47
2022-11-17T20:53:47.341Z,73.60
2022-11-17T20:56:18.640Z,74.12
2022-11-17T20:58:46.761Z,73.66
2022-11-17T21:01:16.118Z,73.45
2022-11-17T21:03:45.487Z,72.81
2022-11-17T21:06:14.249Z,72.88
2022-11-17T21:08:43.498Z,72.40
2022-11-17T21:11:36.115Z,72.25
2022-11-17T21:14:05.632Z,72.19
2022-11-17T21:16:34.994Z,73.08
2022-11-17T21:19:03.271Z,72.83
2022-11-17T21:21:31.344Z,72.75
2022-11-17T21:23:59.845Z,73.54
2022-11-17T21:26:30.862Z,75.27
2022-11-17T21:29:04.804Z,74.62
2022-11-17T21:31:35.302Z,74.83
2022-11-17T21:34:04.776Z,74.68
2022-11-17T21:36:34.512Z,76.12
2022-11-17T21:39:02.787Z,75.42
2022-11-17T21:41:31.983Z,75.22
2022-11-17T21:44:01.945Z,74.75
2022-11-17T21:46:31.211Z,74.63
2022-11-17T21:49:00.097Z,74.04
2022-11-17T21:51:30.078Z,73.77
2022-11-17T21:53:58.993Z,73.75
2022-11-17T21:56:27.897Z,73.61
2022-11-17T21:58:57.384Z,73.61
2022-11-17T22:01:25.473Z,73.94
2022-11-17T22:03:53.635Z,73.74
2022-11-17T22:06:23.114Z,74.02
2022-11-17T22:08:51.589Z,73.67
2022-11-17T22:11:39.221Z,73.78
2022-11-17T22:14:14.225Z,75.29
2022-11-17T22:16:43.829Z,75.58
2022-11-17T22:19:12.698Z,75.38
2022-11-17T22:21:41.281Z,75.12
2022-11-17T22:24:10.347Z,76.58
2022-11-17T22:26:41.199Z,78.36
2022-11-17T22:29:17.451Z,78.04
2022-11-17T22:31:46.537Z,78.51
2022-11-17T22:34:14.710Z,79.19
2022-11-17T22:36:43.197Z,78.90
2022-11-17T22:39:11.221Z,77.53
2022-11-17T22:41:39.645Z,76.09
2022-11-17T22:44:07.702Z,75.91
2022-11-17T22:46:36.424Z,75.38
2022-11-17T22:49:04.467Z,74.66
2022-11-17T22:51:51.270Z,74.19
2022-11-17T22:54:20.064Z,73.70
2022-11-17T22:56:48.651Z,73.37
2022-11-17T22:59:16.736Z,73.29
2022-11-17T23:01:45.094Z,73.28
2022-11-17T23:04:14.095Z,74.06
2022-11-17T23:06:42.572Z,74.16
2022-11-17T23:09:11.054Z,73.51
2022-11-17T23:11:39.219Z,72.05
2022-11-17T23:14:09.240Z,72.00
2022-11-17T23:16:37.815Z,72.19
2022-11-17T23:19:06.703Z,72.78
2022-11-17T23:21:35.085Z,72.17
2022-11-17T23:24:04.288Z,72.00
2022-11-17T23:26:32.355Z,72.60
2022-11-17T23:29:00.531Z,73.58
2022-11-17T23:31:28.704Z,74.00
2022-11-17T23:33:57.189Z,74.42
2022-11-17T23:36:25.355Z,74.25
2022-11-17T23:38:55.981Z,75.25
2022-11-17T23:41:24.255Z,75.30
2022-11-17T23:43:53.356Z,74.85
2022-11-17T23:46:23.060Z,74.73
2022-11-17T23:48:51.180Z,75.03
2022-11-17T23:51:20.619Z,75.18
2022-11-17T23:53:49.679Z,75.43
2022-11-17T23:56:19.496Z,75.06
2022-11-17T23:58:47.533Z,75.35
